createdAt,value
2019-05-30T00:00:17.632Z,2.90
2019-05-30T00:02:45.552Z,3.33
2019-05-30T00:05:17.786Z,2.77
2019-05-30T00:07:50.574Z,3.00
2019-05-30T00:10:22.676Z,3.17
2019-05-30T00:12:56.610Z,2.80
2019-05-30T00:15:28.812Z,2.73
2019-05-30T00:18:00.954Z,2.63
2019-05-30T00:20:32.983Z,2.70
2019-05-30T00:23:05.006Z,3.00
2019-05-30T00:25:37.001Z,2.40
2019-05-30T00:28:09.140Z,2.60
2019-05-30T00:30:41.211Z,3.23
2019-05-30T00:33:13.235Z,2.83
2019-05-30T00:35:45.501Z,2.67
2019-05-30T00:38:17.668Z,2.93
2019-05-30T00:40:49.774Z,2.90
2019-05-30T00:43:21.939Z,2.73
2019-05-30T00:45:53.997Z,2.40
2019-05-30T00:48:26.175Z,2.60
2019-05-30T00:50:58.332Z,2.70
2019-05-30T00:53:30.658Z,3.27
2019-05-30T00:56:03.135Z,2.57
2019-05-30T00:58:35.217Z,2.63
2019-05-30T01:01:08.106Z,2.87
2019-05-30T01:03:40.124Z,2.93
2019-05-30T01:06:12.177Z,2.90
2019-05-30T01:08:44.550Z,2.67
2019-05-30T01:11:16.622Z,2.93
2019-05-30T01:13:48.847Z,2.87
2019-05-30T01:16:20.880Z,2.70
2019-05-30T01:18:53.051Z,2.80
2019-05-30T01:21:25.164Z,3.13
2019-05-30T01:23:57.252Z,2.80
2019-05-30T01:26:29.313Z,2.90
2019-05-30T01:29:01.519Z,2.50
2019-05-30T01:31:33.637Z,3.00
2019-05-30T01:34:06.377Z,3.37
2019-05-30T01:36:38.514Z,3.07
2019-05-30T01:39:10.686Z,2.87
2019-05-30T01:41:42.754Z,2.93
2019-05-30T01:44:14.814Z,3.30
2019-05-30T01:46:46.841Z,3.47
2019-05-30T01:49:21.657Z,3.07
2019-05-30T01:51:53.707Z,3.00
2019-05-30T01:54:25.810Z,3.10
2019-05-30T01:56:58.463Z,3.17
2019-05-30T01:59:30.736Z,2.97
2019-05-30T02:02:03.004Z,3.53
2019-05-30T02:04:35.639Z,3.40
2019-05-30T02:07:07.730Z,3.30
2019-05-30T02:09:39.876Z,3.13
2019-05-30T02:12:11.902Z,3.63
2019-05-30T02:14:44.151Z,3.70
2019-05-30T02:17:16.252Z,3.43
2019-05-30T02:19:48.489Z,3.40
2019-05-30T02:22:20.599Z,3.80
2019-05-30T02:24:52.772Z,2.87
2019-05-30T02:27:25.185Z,3.37
2019-05-30T02:29:57.352Z,4.07
2019-05-30T02:32:29.381Z,4.13
2019-05-30T02:35:03.247Z,3.90
2019-05-30T02:37:35.753Z,3.43
2019-05-30T02:40:12.279Z,3.77
2019-05-30T02:42:42.822Z,3.50
2019-05-30T02:45:15.761Z,3.97
2019-05-30T02:47:47.920Z,4.20
2019-05-30T02:50:20.701Z,5.20
2019-05-30T02:52:52.732Z,3.63
2019-05-30T02:55:24.854Z,3.67
2019-05-30T02:57:56.920Z,3.57
2019-05-30T03:00:39.262Z,4.00
2019-05-30T03:03:14.254Z,4.30
2019-05-30T03:05:46.159Z,3.80
2019-05-30T03:08:18.267Z,4.10
2019-05-30T03:10:50.862Z,3.80
2019-05-30T03:13:24.318Z,3.40
2019-05-30T03:15:56.382Z,3.87
2019-05-30T03:18:28.477Z,3.53
2019-05-30T03:21:00.599Z,3.60
2019-05-30T03:23:32.668Z,3.93
2019-05-30T03:26:06.683Z,4.27
2019-05-30T03:28:39.082Z,4.60
2019-05-30T03:31:22.973Z,3.87
2019-05-30T03:33:46.054Z,3.57
2019-05-30T03:36:28.744Z,3.67
2019-05-30T03:38:52.124Z,3.67
2019-05-30T03:41:24.533Z,3.40
2019-05-30T03:43:56.648Z,3.60
2019-05-30T03:46:36.218Z,3.70
2019-05-30T03:49:15.015Z,3.60
2019-05-30T03:51:50.644Z,4.17
2019-05-30T03:54:25.545Z,6.07
2019-05-30T03:57:09.001Z,5.23
2019-05-30T03:59:52.810Z,4.00
2019-05-30T04:02:56.525Z,4.80
2019-05-30T04:05:24.477Z,4.43
2019-05-30T04:08:01.279Z,4.40
2019-05-30T04:10:39.432Z,6.13
2019-05-30T04:13:46.539Z,5.33
2019-05-30T04:16:19.665Z,6.80
2019-05-30T04:18:51.999Z,5.93
2019-05-30T04:21:24.149Z,4.67
2019-05-30T04:23:56.392Z,5.13
2019-05-30T04:26:28.472Z,3.93
2019-05-30T04:29:00.580Z,4.43
2019-05-30T04:31:32.699Z,4.23
2019-05-30T04:34:05.472Z,5.97
2019-05-30T04:36:37.542Z,3.87
2019-05-30T04:39:11.304Z,3.80
2019-05-30T04:41:44.325Z,3.90
2019-05-30T04:44:17.945Z,4.17
2019-05-30T04:46:50.344Z,3.93
2019-05-30T04:49:22.488Z,5.07
2019-05-30T04:51:54.489Z,4.43
2019-05-30T04:54:26.615Z,4.33
2019-05-30T04:56:58.733Z,5.70
2019-05-30T04:59:30.798Z,3.30
2019-05-30T05:02:03.169Z,5.00
2019-05-30T05:04:35.294Z,4.70
2019-05-30T05:07:07.299Z,12.97
2019-05-30T05:09:39.394Z,15.63
2019-05-30T05:12:11.986Z,13.93
2019-05-30T05:14:44.210Z,4.00
2019-05-30T05:17:16.869Z,3.77
2019-05-30T05:19:49.955Z,4.30
2019-05-30T05:22:23.225Z,3.60
2019-05-30T05:24:55.526Z,3.53
2019-05-30T05:27:27.610Z,3.60
2019-05-30T05:29:59.816Z,3.93
2019-05-30T05:32:34.862Z,3.20
2019-05-30T05:35:07.704Z,3.70
2019-05-30T05:37:39.826Z,3.30
2019-05-30T05:40:12.486Z,4.07
2019-05-30T05:42:44.500Z,4.20
2019-05-30T05:45:18.359Z,4.70
2019-05-30T05:47:50.408Z,4.17
2019-05-30T05:50:22.635Z,4.07
2019-05-30T05:52:54.783Z,3.87
2019-05-30T05:55:26.989Z,3.93
2019-05-30T05:57:59.004Z,3.70
2019-05-30T06:00:31.268Z,3.90
2019-05-30T06:03:03.311Z,24.67
2019-05-30T06:05:35.405Z,3.93
2019-05-30T06:08:07.552Z,4.27
2019-05-30T06:10:39.774Z,4.60
2019-05-30T06:13:11.826Z,4.03
2019-05-30T06:15:43.981Z,4.07
2019-05-30T06:18:16.167Z,3.77
2019-05-30T06:20:48.319Z,3.60
2019-05-30T06:23:21.562Z,20.63
2019-05-30T06:25:54.216Z,19.33
2019-05-30T06:28:26.422Z,4.13
2019-05-30T06:30:59.387Z,4.00
2019-05-30T06:33:31.746Z,3.67
2019-05-30T06:36:03.949Z,3.90
2019-05-30T06:38:36.965Z,8.93
2019-05-30T06:41:09.421Z,7.57
2019-05-30T06:43:41.639Z,10.87
2019-05-30T06:46:13.695Z,11.10
2019-05-30T06:48:45.820Z,10.03
2019-05-30T06:51:20.951Z,16.27
2019-05-30T06:53:53.349Z,5.17
2019-05-30T06:56:25.389Z,3.87
2019-05-30T06:58:57.415Z,4.27
2019-05-30T07:01:30.114Z,3.47
2019-05-30T07:04:02.824Z,4.20
2019-05-30T07:06:35.476Z,4.27
2019-05-30T07:09:10.317Z,4.53
2019-05-30T07:11:42.432Z,3.23
2019-05-30T07:14:14.446Z,4.10
2019-05-30T07:16:46.817Z,7.87
2019-05-30T07:19:18.895Z,27.93
2019-05-30T07:21:51.436Z,4.40
2019-05-30T07:24:23.806Z,4.20
2019-05-30T07:26:55.959Z,3.93
2019-05-30T07:29:28.092Z,4.07
2019-05-30T07:32:00.183Z,8.23
2019-05-30T07:34:32.261Z,4.23
2019-05-30T07:37:04.326Z,3.60
2019-05-30T07:39:37.583Z,4.27
2019-05-30T07:42:09.802Z,4.57
2019-05-30T07:44:41.877Z,20.00
2019-05-30T07:47:14.564Z,4.30
2019-05-30T08:01:04.356Z,4.47
2019-05-30T08:03:37.378Z,4.07
2019-05-30T08:06:10.110Z,4.60
2019-05-30T08:08:44.141Z,4.63
2019-05-30T08:11:16.727Z,4.37
2019-05-30T08:13:49.201Z,5.77
2019-05-30T08:16:21.789Z,4.97
2019-05-30T08:18:54.328Z,5.27
2019-05-30T08:21:27.808Z,5.13
2019-05-30T08:24:00.439Z,5.00
2019-05-30T08:26:34.310Z,7.87
2019-05-30T08:29:25.669Z,5.37
2019-05-30T08:31:58.345Z,5.70
2019-05-30T08:34:40.026Z,6.00
2019-05-30T08:37:12.503Z,9.07
2019-05-30T08:39:45.152Z,7.20
2019-05-30T08:42:18.055Z,4.37
2019-05-30T08:44:51.135Z,8.77
2019-05-30T08:47:23.676Z,6.30
2019-05-30T08:49:56.414Z,5.90
2019-05-30T08:52:30.270Z,5.20
2019-05-30T08:55:02.907Z,8.53
2019-05-30T08:57:36.662Z,6.30
2019-05-30T09:00:10.594Z,9.40
2019-05-30T09:02:43.411Z,6.03
2019-05-30T09:05:16.419Z,7.63
2019-05-30T09:07:49.523Z,7.40
2019-05-30T09:10:31.539Z,7.00
2019-05-30T09:13:04.988Z,8.03
2019-05-30T09:15:39.109Z,9.90
2019-05-30T09:18:11.864Z,9.53
2019-05-30T09:20:45.271Z,6.00
2019-05-30T09:23:18.122Z,4.93
2019-05-30T09:25:50.567Z,7.90
2019-05-30T09:28:23.286Z,13.00
2019-05-30T09:30:56.252Z,7.57
2019-05-30T09:33:29.929Z,7.60
2019-05-30T09:36:12.547Z,4.60
2019-05-30T09:38:37.225Z,7.00
2019-05-30T09:41:09.827Z,12.10
2019-05-30T09:43:42.929Z,9.23
2019-05-30T09:46:16.024Z,17.67
2019-05-30T09:48:48.741Z,14.43
2019-05-30T09:51:21.585Z,8.30
2019-05-30T09:53:54.524Z,5.63
2019-05-30T09:56:26.897Z,5.77
2019-05-30T09:59:00.047Z,8.67
2019-05-30T10:01:32.697Z,10.43
2019-05-30T10:04:05.336Z,12.33
2019-05-30T10:06:37.871Z,8.87
2019-05-30T10:09:11.980Z,11.33
2019-05-30T10:11:45.579Z,8.60
2019-05-30T10:14:18.310Z,21.43
2019-05-30T10:16:55.014Z,12.33
2019-05-30T10:19:25.301Z,10.40
2019-05-30T10:21:57.945Z,14.63
2019-05-30T10:24:30.697Z,8.97
2019-05-30T10:27:03.368Z,15.00
2019-05-30T10:29:35.909Z,7.43
2019-05-30T10:32:09.617Z,5.40
2019-05-30T10:34:42.262Z,7.37
2019-05-30T10:37:14.784Z,42.57
2019-05-30T10:39:47.425Z,6.10
2019-05-30T10:42:20.039Z,8.30
2019-05-30T10:44:52.900Z,5.30
2019-05-30T10:47:27.231Z,6.17
2019-05-30T10:50:00.031Z,8.13
2019-05-30T10:52:32.961Z,8.53
2019-05-30T10:55:07.331Z,6.13
2019-05-30T10:57:39.977Z,12.77
2019-05-30T11:00:14.843Z,23.27
2019-05-30T11:02:47.954Z,11.67
2019-05-30T11:05:22.135Z,7.30
2019-05-30T11:08:06.133Z,18.77
2019-05-30T11:10:43.179Z,6.80
2019-05-30T11:13:18.128Z,8.97
2019-05-30T11:15:51.643Z,6.67
2019-05-30T11:18:25.338Z,8.07
2019-05-30T11:20:58.623Z,12.03
2019-05-30T11:23:31.530Z,4.60
2019-05-30T11:26:03.990Z,12.97
2019-05-30T11:28:36.771Z,5.67
2019-05-30T11:31:09.137Z,9.53
2019-05-30T11:33:41.993Z,4.90
2019-05-30T11:36:14.712Z,9.50
2019-05-30T11:38:47.122Z,16.50
2019-05-30T11:41:19.586Z,8.80
2019-05-30T11:43:53.428Z,7.10
2019-05-30T11:46:26.499Z,15.40
2019-05-30T11:49:00.034Z,7.77
2019-05-30T11:51:32.810Z,16.37
2019-05-30T11:54:05.577Z,9.50
2019-05-30T11:56:38.164Z,9.80
2019-05-30T11:59:10.873Z,8.87
2019-05-30T12:01:43.477Z,12.43
2019-05-30T12:04:16.682Z,9.63
2019-05-30T12:06:50.864Z,7.00
2019-05-30T12:09:23.711Z,8.27
2019-05-30T12:11:57.442Z,7.77
2019-05-30T12:14:30.227Z,11.63
2019-05-30T12:17:02.978Z,14.07
2019-05-30T12:19:36.550Z,13.60
2019-05-30T12:22:09.560Z,7.53
2019-05-30T12:24:42.204Z,10.40
2019-05-30T12:27:14.928Z,10.50
2019-05-30T12:29:47.570Z,8.27
2019-05-30T12:32:20.032Z,11.50
2019-05-30T12:34:52.764Z,8.87
2019-05-30T12:37:25.695Z,17.93
2019-05-30T12:39:58.750Z,10.47
2019-05-30T12:42:31.476Z,8.23
2019-05-30T12:45:07.230Z,23.87
2019-05-30T12:47:39.205Z,12.23
2019-05-30T12:50:12.747Z,8.70
2019-05-30T12:52:45.475Z,6.87
2019-05-30T12:55:18.427Z,6.03
2019-05-30T12:57:50.957Z,20.30
2019-05-30T13:00:25.927Z,10.67
2019-05-30T13:02:58.931Z,14.67
2019-05-30T13:05:31.786Z,10.70
2019-05-30T13:08:18.019Z,9.50
2019-05-30T13:10:38.440Z,7.80
2019-05-30T13:13:11.212Z,6.03
2019-05-30T13:15:44.318Z,8.67
2019-05-30T13:18:17.405Z,7.97
2019-05-30T13:20:50.076Z,11.40
2019-05-30T13:23:22.755Z,8.03
2019-05-30T13:25:55.553Z,6.67
2019-05-30T13:28:28.343Z,10.20
2019-05-30T13:31:02.230Z,12.83
2019-05-30T13:33:38.032Z,9.90
2019-05-30T13:36:09.298Z,9.37
2019-05-30T13:38:41.808Z,11.30
2019-05-30T13:41:15.088Z,10.27
2019-05-30T13:43:48.109Z,15.83
2019-05-30T13:46:20.602Z,13.10
2019-05-30T13:48:53.749Z,32.47
2019-05-30T13:51:26.411Z,18.43
2019-05-30T13:53:59.243Z,14.73
2019-05-30T13:56:32.023Z,12.93
2019-05-30T13:59:05.963Z,9.10
2019-05-30T14:01:38.782Z,12.73
2019-05-30T14:04:11.524Z,8.50
2019-05-30T14:06:44.254Z,8.03
2019-05-30T14:09:17.313Z,10.30
2019-05-30T14:11:51.951Z,12.57
2019-05-30T14:14:24.699Z,9.03
2019-05-30T14:16:58.075Z,15.37
2019-05-30T14:19:30.791Z,12.37
2019-05-30T14:22:03.274Z,14.20
2019-05-30T14:24:36.129Z,19.93
2019-05-30T14:27:09.612Z,16.37
2019-05-30T14:29:42.429Z,23.13
2019-05-30T14:32:15.108Z,7.43
2019-05-30T14:34:47.958Z,7.90
2019-05-30T14:37:20.490Z,10.73
2019-05-30T14:39:53.098Z,3.87
2019-05-30T14:42:25.743Z,9.17
2019-05-30T14:44:58.548Z,17.17
2019-05-30T14:47:31.113Z,28.40
2019-05-30T14:50:04.590Z,13.80
2019-05-30T14:52:37.806Z,26.83
2019-05-30T14:55:11.197Z,17.47
2019-05-30T14:57:44.210Z,8.80
2019-05-30T15:00:18.141Z,15.60
2019-05-30T15:02:50.816Z,5.20
2019-05-30T15:05:23.501Z,13.73
2019-05-30T15:07:56.226Z,3.60
2019-05-30T15:10:28.806Z,24.73
2019-05-30T15:13:01.150Z,26.03
2019-05-30T15:15:33.973Z,21.87
2019-05-30T15:18:07.105Z,29.30
2019-05-30T15:20:39.759Z,18.30
2019-05-30T15:23:13.795Z,5.30
2019-05-30T15:25:46.497Z,7.67
2019-05-30T15:28:19.164Z,19.57
2019-05-30T15:30:51.963Z,22.53
2019-05-30T15:33:24.550Z,6.13
2019-05-30T15:35:57.200Z,9.63
2019-05-30T15:38:29.804Z,6.33
2019-05-30T15:41:02.617Z,6.33
2019-05-30T15:43:35.486Z,6.87
2019-05-30T15:46:08.169Z,15.57
2019-05-30T15:48:41.154Z,21.83
2019-05-30T15:51:14.658Z,14.63
2019-05-30T15:53:48.559Z,10.20
2019-05-30T15:56:21.995Z,11.73
2019-05-30T15:58:54.816Z,10.67
2019-05-30T16:01:28.426Z,15.87
2019-05-30T16:04:01.202Z,12.87
2019-05-30T16:06:34.230Z,9.03
2019-05-30T16:09:08.412Z,5.77
2019-05-30T16:11:41.434Z,14.90
2019-05-30T16:14:15.333Z,2.57
2019-05-30T16:16:48.261Z,28.90
2019-05-30T16:19:26.201Z,22.23
2019-05-30T16:21:56.690Z,35.37
2019-05-30T16:24:29.957Z,26.57
2019-05-30T16:27:03.550Z,9.17
2019-05-30T16:29:36.124Z,13.33
2019-05-30T16:32:10.418Z,13.80
2019-05-30T16:34:43.437Z,9.17
2019-05-30T16:37:16.693Z,14.83
2019-05-30T16:40:04.536Z,23.23
2019-05-30T16:42:24.308Z,17.53
2019-05-30T16:44:57.546Z,25.93
2019-05-30T16:47:30.436Z,33.03
2019-05-30T16:50:03.517Z,36.63
2019-05-30T16:52:36.835Z,28.57
2019-05-30T16:55:11.674Z,24.10
2019-05-30T16:57:44.596Z,6.37
2019-05-30T17:00:20.020Z,12.30
2019-05-30T17:02:53.073Z,20.00
2019-05-30T17:05:26.111Z,11.50
2019-05-30T17:07:58.851Z,5.90
2019-05-30T17:10:33.206Z,9.20
2019-05-30T17:13:05.996Z,6.10
2019-05-30T17:15:38.858Z,6.67
2019-05-30T17:18:11.610Z,6.00
2019-05-30T17:20:44.470Z,3.77
2019-05-30T17:23:16.898Z,6.93
2019-05-30T17:25:49.466Z,7.00
2019-05-30T17:28:22.309Z,3.83
2019-05-30T17:30:55.105Z,32.23
2019-05-30T17:33:28.255Z,9.03
2019-05-30T17:36:00.913Z,14.70
2019-05-30T17:38:33.907Z,10.77
2019-05-30T17:41:06.549Z,6.83
2019-05-30T17:43:39.231Z,8.80
2019-05-30T17:46:11.911Z,16.50
2019-05-30T17:48:45.131Z,10.13
2019-05-30T17:51:18.058Z,14.50
2019-05-30T17:53:50.851Z,12.93
2019-05-30T17:56:24.042Z,5.77
2019-05-30T17:58:56.539Z,11.57
2019-05-30T18:01:30.427Z,4.80
2019-05-30T18:04:03.315Z,15.87
2019-05-30T18:06:36.066Z,4.97
2019-05-30T18:09:10.997Z,6.27
2019-05-30T18:11:52.357Z,6.97
2019-05-30T18:14:25.062Z,5.63
2019-05-30T18:16:57.982Z,4.23
2019-05-30T18:19:31.522Z,4.40
2019-05-30T18:22:04.328Z,6.80
2019-05-30T18:24:37.371Z,5.30
2019-05-30T18:27:09.824Z,3.83
2019-05-30T18:29:42.739Z,6.40
2019-05-30T18:32:15.330Z,4.53
2019-05-30T18:34:48.043Z,4.33
2019-05-30T18:37:22.268Z,6.90
2019-05-30T18:39:54.918Z,3.30
2019-05-30T18:42:29.050Z,3.93
2019-05-30T18:45:01.832Z,4.23
2019-05-30T18:47:34.965Z,3.83
2019-05-30T18:50:08.973Z,6.47
2019-05-30T18:52:41.580Z,4.20
2019-05-30T18:55:14.287Z,4.73
2019-05-30T18:57:47.031Z,4.80
2019-05-30T19:00:19.511Z,6.67
2019-05-30T19:02:52.345Z,5.37
2019-05-30T19:05:24.950Z,3.50
2019-05-30T19:07:58.179Z,3.87
2019-05-30T19:10:32.060Z,4.43
2019-05-30T19:13:05.303Z,4.07
2019-05-30T19:15:37.965Z,3.23
2019-05-30T19:18:12.538Z,2.67
2019-05-30T19:20:45.145Z,2.93
2019-05-30T19:23:18.418Z,2.67
2019-05-30T19:25:51.127Z,3.07
2019-05-30T19:28:32.882Z,2.47
2019-05-30T19:31:05.863Z,1.97
2019-05-30T19:33:38.822Z,2.13
2019-05-30T19:36:11.321Z,1.67
2019-05-30T19:38:44.219Z,1.97
2019-05-30T19:41:17.757Z,2.43
2019-05-30T19:43:50.567Z,2.47
2019-05-30T19:46:23.563Z,3.93
2019-05-30T19:48:59.641Z,2.83
2019-05-30T19:51:33.038Z,1.93
2019-05-30T19:54:06.715Z,1.93
2019-05-30T19:56:41.886Z,13.10
2019-05-30T19:59:14.774Z,4.80
2019-05-30T20:01:47.433Z,2.60
2019-05-30T20:04:22.954Z,3.27
2019-05-30T20:06:55.511Z,2.43
2019-05-30T20:09:30.479Z,1.83
2019-05-30T20:12:08.598Z,1.47
2019-05-30T20:14:39.516Z,1.70
2019-05-30T20:17:16.191Z,1.67
2019-05-30T20:19:49.147Z,1.90
2019-05-30T20:22:22.085Z,1.70
2019-05-30T20:24:54.982Z,2.10
2019-05-30T20:27:37.092Z,1.63
2019-05-30T20:30:11.400Z,2.07
2019-05-30T20:32:44.719Z,2.10
2019-05-30T20:35:18.197Z,2.20
2019-05-30T20:37:54.752Z,1.50
2019-05-30T20:40:27.390Z,1.43
2019-05-30T20:43:00.928Z,1.37
2019-05-30T20:45:38.348Z,1.60
2019-05-30T20:48:11.312Z,1.80
2019-05-30T20:50:43.782Z,1.70
2019-05-30T20:53:16.294Z,1.63
2019-05-30T20:55:49.313Z,1.90
2019-05-30T20:58:22.091Z,1.70
2019-05-30T21:01:14.003Z,1.63
2019-05-30T21:03:48.640Z,1.50
2019-05-30T21:06:26.080Z,1.40
2019-05-30T21:09:00.952Z,1.60
2019-05-30T21:11:54.989Z,1.50
2019-05-30T21:14:31.015Z,1.80
2019-05-30T21:17:05.692Z,1.73
2019-05-30T21:19:38.410Z,2.27
2019-05-30T21:22:11.205Z,1.83
2019-05-30T21:24:44.734Z,1.30
2019-05-30T21:27:21.265Z,1.67
2019-05-30T21:29:54.446Z,1.60
2019-05-30T21:32:27.380Z,1.80
2019-05-30T21:35:00.553Z,1.83
2019-05-30T21:37:33.453Z,1.83
2019-05-30T21:40:06.597Z,2.00
2019-05-30T21:42:56.774Z,1.60
2019-05-30T21:45:14.610Z,1.23
2019-05-30T21:47:47.157Z,2.00
2019-05-30T21:50:20.588Z,1.50
2019-05-30T21:52:53.369Z,1.40
2019-05-30T21:55:26.057Z,1.70
2019-05-30T21:57:59.167Z,1.70
2019-05-30T22:01:29.377Z,1.63
2019-05-30T22:04:02.379Z,1.10
2019-05-30T22:06:35.337Z,1.20
2019-05-30T22:09:14.606Z,1.50
2019-05-30T22:11:47.741Z,1.57
2019-05-30T22:14:20.363Z,2.00
2019-05-30T22:16:53.036Z,2.00
2019-05-30T22:19:25.658Z,1.87
2019-05-30T22:21:58.086Z,2.07
2019-05-30T22:24:31.351Z,2.10
2019-05-30T22:27:04.034Z,1.90
2019-05-30T22:29:40.326Z,2.27
2019-05-30T22:32:11.418Z,1.80
2019-05-30T22:34:44.694Z,1.93
2019-05-30T22:37:17.212Z,1.90
2019-05-30T22:39:51.010Z,1.60
2019-05-30T22:42:23.644Z,2.03
2019-05-30T22:45:03.789Z,1.57
2019-05-30T22:47:37.438Z,1.87
2019-05-30T22:50:10.263Z,1.97
2019-05-30T22:52:44.716Z,1.90
2019-05-30T22:55:17.723Z,2.50
2019-05-30T22:57:50.406Z,2.43
2019-05-30T23:00:24.052Z,2.53
2019-05-30T23:02:56.576Z,2.20
2019-05-30T23:05:29.308Z,2.63
2019-05-30T23:08:01.857Z,2.40
2019-05-30T23:10:34.556Z,2.57
2019-05-30T23:13:07.442Z,2.50
2019-05-30T23:15:40.260Z,2.37
2019-05-30T23:18:12.970Z,2.40
2019-05-30T23:20:46.560Z,1.80
2019-05-30T23:23:19.181Z,1.60
2019-05-30T23:25:51.646Z,1.60
2019-05-30T23:28:24.174Z,1.80
2019-05-30T23:30:56.709Z,1.73
2019-05-30T23:33:29.424Z,1.53
2019-05-30T23:36:01.942Z,1.50
2019-05-30T23:38:34.621Z,1.80
2019-05-30T23:41:07.344Z,1.40
2019-05-30T23:43:53.156Z,1.40
2019-05-30T23:46:14.206Z,1.30
2019-05-30T23:48:46.791Z,1.70
2019-05-30T23:51:19.626Z,1.60
2019-05-30T23:53:52.302Z,1.60
2019-05-30T23:56:24.943Z,1.43
2019-05-30T23:58:57.412Z,1.47
